createdAt,value
2023-01-27T00:00:34.919Z,3.83
2023-01-27T00:03:01.575Z,4.13
2023-01-27T00:05:28.222Z,3.67
2023-01-27T00:07:58.457Z,3.10
2023-01-27T00:10:25.847Z,5.35
2023-01-27T00:13:11.175Z,3.85
2023-01-27T00:15:37.931Z,2.90
2023-01-27T00:18:04.671Z,4.55
2023-01-27T00:20:49.755Z,3.67
2023-01-27T00:23:37.573Z,4.28
2023-01-27T00:26:06.753Z,3.33
2023-01-27T00:28:34.620Z,4.13
2023-01-27T00:31:01.757Z,3.97
2023-01-27T00:33:29.083Z,4.75
2023-01-27T00:36:08.198Z,3.97
2023-01-27T00:38:41.906Z,3.17
2023-01-27T00:41:20.711Z,3.63
2023-01-27T00:43:48.664Z,6.07
2023-01-27T00:46:16.481Z,3.40
2023-01-27T00:48:43.921Z,3.75
2023-01-27T00:51:11.085Z,3.58
2023-01-27T00:53:38.078Z,3.67
2023-01-27T00:56:05.490Z,3.35
2023-01-27T00:58:32.299Z,3.13
2023-01-27T01:01:04.046Z,4.55
2023-01-27T01:03:32.770Z,3.67
2023-01-27T01:06:00.942Z,4.95
2023-01-27T01:08:30.708Z,3.00
2023-01-27T01:10:57.812Z,7.25
2023-01-27T01:13:25.524Z,6.50
2023-01-27T01:15:52.206Z,4.20
2023-01-27T01:18:19.208Z,3.45
2023-01-27T01:20:46.984Z,4.38
2023-01-27T01:23:15.809Z,5.22
2023-01-27T01:25:43.142Z,3.28
2023-01-27T01:28:11.716Z,4.43
2023-01-27T01:30:38.567Z,3.22
2023-01-27T01:33:05.890Z,4.70
2023-01-27T01:35:37.966Z,4.43
2023-01-27T01:38:04.638Z,3.28
2023-01-27T01:40:32.419Z,4.25
2023-01-27T01:43:01.618Z,3.80
2023-01-27T01:45:36.360Z,6.25
2023-01-27T01:48:10.873Z,3.90
2023-01-27T01:50:40.705Z,4.40
2023-01-27T01:53:09.921Z,3.17
2023-01-27T01:55:39.390Z,3.95
2023-01-27T01:58:08.306Z,3.60
2023-01-27T02:00:35.128Z,3.60
2023-01-27T02:03:03.083Z,3.00
2023-01-27T02:05:34.824Z,3.70
2023-01-27T02:08:25.825Z,2.85
2023-01-27T02:10:54.507Z,3.70
2023-01-27T02:13:21.839Z,4.07
2023-01-27T02:15:50.646Z,3.28
2023-01-27T02:18:18.809Z,3.55
2023-01-27T02:20:51.994Z,3.35
2023-01-27T02:23:28.197Z,4.28
2023-01-27T02:25:55.489Z,3.00
2023-01-27T02:28:22.289Z,3.92
2023-01-27T02:30:48.978Z,3.63
2023-01-27T02:33:16.144Z,2.72
2023-01-27T02:36:03.295Z,3.08
2023-01-27T02:38:36.766Z,3.10
2023-01-27T02:41:14.935Z,3.58
2023-01-27T02:43:42.120Z,2.70
2023-01-27T02:46:08.973Z,4.32
2023-01-27T02:48:35.944Z,2.83
2023-01-27T02:51:02.742Z,3.42
2023-01-27T02:53:32.209Z,3.80
2023-01-27T02:55:58.836Z,13.63
2023-01-27T02:58:25.554Z,2.63
2023-01-27T03:00:57.344Z,2.47
2023-01-27T03:03:24.121Z,2.65
2023-01-27T03:05:51.534Z,2.88
2023-01-27T03:08:19.168Z,2.35
2023-01-27T03:10:51.024Z,3.05
2023-01-27T03:13:22.763Z,2.35
2023-01-27T03:16:10.430Z,2.90
2023-01-27T03:18:38.646Z,2.40
2023-01-27T03:21:07.247Z,2.00
2023-01-27T03:23:34.458Z,2.30
2023-01-27T03:26:05.712Z,2.60
2023-01-27T03:28:33.161Z,2.47
2023-01-27T03:31:06.481Z,2.20
2023-01-27T03:33:44.242Z,3.22
2023-01-27T03:36:42.471Z,2.28
2023-01-27T03:39:27.742Z,2.15
2023-01-27T03:42:13.288Z,3.38
2023-01-27T03:44:59.083Z,2.70
2023-01-27T03:47:26.448Z,2.47
2023-01-27T03:49:53.104Z,3.60
2023-01-27T03:52:19.723Z,3.75
2023-01-27T03:54:46.366Z,2.30
2023-01-27T03:57:13.413Z,2.40
2023-01-27T03:59:40.196Z,2.20
2023-01-27T04:02:25.403Z,2.35
2023-01-27T04:05:11.272Z,2.15
2023-01-27T04:07:38.180Z,2.27
2023-01-27T04:10:06.233Z,1.85
2023-01-27T04:12:33.042Z,2.88
2023-01-27T04:15:00.080Z,1.95
2023-01-27T04:17:26.723Z,2.08
2023-01-27T04:19:53.381Z,1.90
2023-01-27T04:22:20.095Z,2.30
2023-01-27T04:24:47.001Z,2.00
2023-01-27T04:27:20.294Z,1.80
2023-01-27T04:29:47.125Z,2.00
2023-01-27T04:32:14.276Z,2.10
2023-01-27T04:34:41.278Z,1.70
2023-01-27T04:37:09.305Z,1.80
2023-01-27T04:39:36.191Z,1.77
2023-01-27T04:42:02.985Z,1.98
2023-01-27T04:44:30.163Z,1.50
2023-01-27T04:46:56.783Z,1.60
2023-01-27T04:49:23.686Z,2.50
2023-01-27T04:51:50.289Z,1.35
2023-01-27T04:54:17.207Z,2.88
2023-01-27T04:56:58.903Z,1.58
2023-01-27T04:59:25.616Z,1.42
2023-01-27T05:01:52.358Z,1.88
2023-01-27T05:04:19.031Z,1.42
2023-01-27T05:06:45.728Z,1.85
2023-01-27T05:09:12.457Z,3.80
2023-01-27T05:11:39.143Z,3.28
2023-01-27T05:14:05.823Z,2.75
2023-01-27T05:16:32.533Z,2.55
2023-01-27T05:18:59.234Z,2.95
2023-01-27T05:21:30.967Z,2.72
2023-01-27T05:23:57.715Z,3.80
2023-01-27T05:26:28.297Z,2.47
2023-01-27T05:28:57.833Z,1.42
2023-01-27T05:31:27.271Z,2.75
2023-01-27T05:33:55.828Z,2.55
2023-01-27T05:36:24.151Z,3.40
2023-01-27T05:38:50.980Z,1.60
2023-01-27T05:41:19.225Z,2.42
2023-01-27T05:43:47.046Z,4.15
2023-01-27T05:46:16.605Z,3.38
2023-01-27T05:48:45.646Z,2.67
2023-01-27T05:51:15.196Z,3.38
2023-01-27T05:53:42.823Z,2.05
2023-01-27T05:56:11.190Z,2.17
2023-01-27T05:58:38.188Z,3.13
2023-01-27T06:01:12.465Z,3.10
2023-01-27T06:03:40.235Z,3.03
2023-01-27T06:06:08.433Z,2.80
2023-01-27T06:08:36.244Z,2.28
2023-01-27T06:11:03.564Z,3.88
2023-01-27T06:13:30.274Z,3.25
2023-01-27T06:15:57.139Z,2.72
2023-01-27T06:18:24.241Z,2.92
2023-01-27T06:20:51.001Z,1.70
2023-01-27T06:23:18.377Z,2.47
2023-01-27T06:25:49.071Z,1.95
2023-01-27T06:28:28.188Z,2.22
2023-01-27T06:30:57.277Z,2.83
2023-01-27T06:33:24.104Z,4.35
2023-01-27T06:35:50.875Z,3.55
2023-01-27T06:38:17.497Z,3.97
2023-01-27T06:40:44.340Z,2.15
2023-01-27T06:43:13.859Z,3.80
2023-01-27T06:45:40.986Z,4.15
2023-01-27T06:48:11.073Z,2.05
2023-01-27T06:50:37.779Z,2.78
2023-01-27T06:53:07.024Z,2.25
2023-01-27T06:55:35.383Z,3.83
2023-01-27T06:58:02.862Z,3.10
2023-01-27T07:00:29.907Z,3.28
2023-01-27T07:02:57.051Z,2.88
2023-01-27T07:05:23.917Z,4.30
2023-01-27T07:07:50.505Z,3.25
2023-01-27T07:10:17.319Z,1.90
2023-01-27T07:12:44.009Z,2.70
2023-01-27T07:15:11.461Z,3.67
2023-01-27T07:17:41.184Z,3.17
2023-01-27T07:20:11.911Z,3.78
2023-01-27T07:22:39.528Z,1.90
2023-01-27T07:25:06.747Z,2.45
2023-01-27T07:27:33.367Z,3.38
2023-01-27T07:30:00.175Z,2.78
2023-01-27T07:32:28.456Z,2.30
2023-01-27T07:34:55.387Z,2.03
2023-01-27T07:37:22.112Z,2.70
2023-01-27T07:39:50.037Z,3.15
2023-01-27T07:42:16.705Z,1.92
2023-01-27T07:44:43.328Z,3.03
2023-01-27T07:47:09.999Z,3.80
2023-01-27T07:49:36.614Z,3.45
2023-01-27T07:52:03.364Z,2.70
2023-01-27T07:54:30.043Z,2.35
2023-01-27T07:56:59.669Z,1.95
2023-01-27T07:59:26.336Z,1.73
2023-01-27T08:01:53.011Z,1.80
2023-01-27T08:04:19.870Z,2.20
2023-01-27T08:06:46.566Z,3.20
2023-01-27T08:09:14.719Z,2.58
2023-01-27T08:11:41.343Z,2.92
2023-01-27T08:14:08.002Z,2.38
2023-01-27T08:16:34.892Z,2.78
2023-01-27T08:19:01.588Z,4.82
2023-01-27T08:21:32.825Z,3.95
2023-01-27T08:24:00.467Z,2.65
2023-01-27T08:26:27.985Z,4.32
2023-01-27T08:28:54.650Z,1.95
2023-01-27T08:31:21.407Z,3.53
2023-01-27T08:33:52.883Z,3.38
2023-01-27T08:36:20.739Z,2.88
2023-01-27T08:38:49.344Z,3.45
2023-01-27T08:41:21.185Z,3.28
2023-01-27T08:43:48.685Z,5.80
2023-01-27T08:46:16.317Z,4.78
2023-01-27T08:48:43.014Z,4.65
2023-01-27T08:51:12.572Z,2.95
2023-01-27T08:53:40.055Z,3.95
2023-01-27T08:56:10.864Z,3.30
2023-01-27T08:58:37.853Z,3.53
2023-01-27T09:01:06.525Z,3.15
2023-01-27T09:03:34.133Z,3.58
2023-01-27T09:06:01.280Z,4.13
2023-01-27T09:08:28.933Z,3.67
2023-01-27T09:10:56.068Z,3.88
2023-01-27T09:13:22.789Z,4.03
2023-01-27T09:15:52.802Z,2.53
2023-01-27T09:18:19.829Z,3.35
2023-01-27T09:20:46.546Z,5.28
2023-01-27T09:23:13.278Z,3.72
2023-01-27T09:25:40.036Z,4.38
2023-01-27T09:28:09.957Z,3.42
2023-01-27T09:30:36.910Z,5.97
2023-01-27T09:33:04.189Z,3.45
2023-01-27T09:35:38.945Z,2.78
2023-01-27T09:38:07.066Z,4.88
2023-01-27T09:40:54.584Z,2.58
2023-01-27T09:43:54.445Z,3.67
2023-01-27T09:46:33.069Z,3.35
2023-01-27T09:49:02.818Z,2.95
2023-01-27T09:51:53.754Z,3.95
2023-01-27T09:54:28.282Z,4.88
2023-01-27T09:57:24.670Z,4.22
2023-01-27T09:59:54.700Z,5.25
2023-01-27T10:02:39.590Z,4.43
2023-01-27T10:05:30.301Z,3.25
2023-01-27T10:08:16.469Z,3.83
2023-01-27T10:10:57.018Z,2.53
2023-01-27T10:13:48.901Z,2.92
2023-01-27T10:16:40.321Z,4.28
2023-01-27T10:19:26.007Z,3.10
2023-01-27T10:22:01.890Z,3.50
2023-01-27T10:24:46.423Z,4.90
2023-01-27T10:27:22.867Z,4.13
2023-01-27T10:30:21.957Z,3.30
2023-01-27T10:33:03.666Z,2.88
2023-01-27T10:35:57.124Z,3.05
2023-01-27T10:38:42.110Z,5.35
2023-01-27T10:41:23.874Z,3.00
2023-01-27T10:44:15.791Z,4.35
2023-01-27T10:47:00.692Z,4.03
2023-01-27T10:49:41.975Z,3.83
2023-01-27T10:52:18.483Z,3.15
2023-01-27T10:57:39.955Z,2.53
2023-01-27T11:00:41.862Z,2.50
2023-01-27T11:03:27.043Z,2.60
2023-01-27T11:05:58.036Z,3.70
2023-01-27T11:08:32.796Z,2.53
2023-01-27T11:11:22.263Z,4.32
2023-01-27T11:13:51.095Z,4.75
2023-01-27T11:16:19.837Z,2.42
2023-01-27T11:18:56.899Z,3.28
2023-01-27T11:21:28.122Z,4.90
2023-01-27T11:23:57.141Z,2.35
2023-01-27T11:26:33.350Z,3.50
2023-01-27T11:29:19.936Z,2.78
2023-01-27T11:32:01.988Z,3.28
2023-01-27T11:34:34.769Z,2.40
2023-01-27T11:37:17.528Z,3.40
2023-01-27T11:39:44.259Z,2.50
2023-01-27T11:42:11.977Z,4.13
2023-01-27T11:44:40.902Z,3.50
2023-01-27T11:47:13.061Z,3.95
2023-01-27T11:49:44.938Z,3.70
2023-01-27T11:52:20.338Z,2.95
2023-01-27T11:54:50.239Z,4.43
2023-01-27T11:57:22.626Z,3.47
2023-01-27T11:59:55.298Z,3.58
2023-01-27T12:02:55.234Z,2.05
2023-01-27T12:05:38.154Z,3.50
2023-01-27T12:08:05.553Z,3.47
2023-01-27T12:10:33.805Z,2.58
2023-01-27T12:13:24.877Z,2.83
2023-01-27T12:15:55.432Z,2.70
2023-01-27T12:18:25.473Z,3.17
2023-01-27T12:21:03.545Z,3.88
2023-01-27T12:23:34.376Z,1.95
2023-01-27T12:26:03.013Z,3.28
2023-01-27T12:28:35.256Z,4.13
2023-01-27T12:31:19.454Z,4.53
2023-01-27T12:33:58.380Z,4.70
2023-01-27T12:36:25.482Z,2.50
2023-01-27T12:38:55.731Z,3.97
2023-01-27T12:41:28.379Z,4.40
2023-01-27T12:44:13.629Z,1.83
2023-01-27T12:46:54.675Z,3.78
2023-01-27T12:49:22.578Z,2.47
2023-01-27T12:51:55.222Z,3.05
2023-01-27T12:54:27.589Z,3.33
2023-01-27T12:57:00.780Z,3.78
2023-01-27T12:59:28.276Z,3.53
2023-01-27T13:02:00.266Z,3.35
2023-01-27T13:04:28.916Z,2.60
2023-01-27T13:06:58.495Z,3.38
2023-01-27T13:09:30.828Z,4.47
2023-01-27T13:12:01.359Z,2.28
2023-01-27T13:14:30.594Z,1.83
2023-01-27T13:17:02.160Z,4.00
2023-01-27T13:19:45.615Z,2.70
2023-01-27T13:22:21.797Z,3.70
2023-01-27T13:24:54.644Z,4.32
2023-01-27T13:27:23.271Z,1.92
2023-01-27T13:30:06.234Z,3.33
2023-01-27T13:32:37.023Z,2.67
2023-01-27T13:35:30.185Z,2.70
2023-01-27T13:38:02.253Z,2.78
2023-01-27T13:40:36.875Z,2.35
2023-01-27T13:43:33.780Z,3.08
2023-01-27T13:46:17.223Z,2.78
2023-01-27T13:48:53.814Z,3.00
2023-01-27T13:51:23.513Z,2.55
2023-01-27T13:53:59.964Z,2.70
2023-01-27T13:56:32.806Z,1.65
2023-01-27T13:59:32.753Z,2.22
2023-01-27T14:02:08.397Z,2.95
2023-01-27T14:04:40.907Z,2.70
2023-01-27T14:07:32.223Z,5.03
2023-01-27T14:10:26.229Z,1.70
2023-01-27T14:13:30.629Z,2.20
2023-01-27T14:16:11.456Z,4.05
2023-01-27T14:18:44.898Z,2.10
2023-01-27T14:21:45.834Z,3.00
2023-01-27T14:24:25.159Z,5.57
2023-01-27T14:27:00.818Z,3.40
2023-01-27T14:29:38.770Z,2.47
2023-01-27T14:32:20.444Z,3.28
2023-01-27T14:35:01.007Z,1.88
2023-01-27T14:37:35.160Z,2.05
2023-01-27T14:40:13.371Z,2.67
2023-01-27T14:43:01.864Z,3.10
2023-01-27T14:45:28.480Z,3.00
2023-01-27T14:48:09.437Z,4.35
2023-01-27T14:50:47.992Z,4.72
2023-01-27T14:53:33.174Z,4.65
2023-01-27T14:56:07.639Z,4.20
2023-01-27T14:59:11.846Z,4.93
2023-01-27T15:01:55.167Z,2.55
2023-01-27T15:04:37.548Z,3.33
2023-01-27T15:07:22.406Z,2.40
2023-01-27T15:10:06.037Z,4.10
2023-01-27T15:13:03.537Z,3.55
2023-01-27T15:18:30.274Z,3.13
2023-01-27T15:21:11.873Z,4.97
2023-01-27T15:24:09.034Z,3.83
2023-01-27T15:26:37.468Z,2.33
2023-01-27T15:29:04.887Z,2.17
2023-01-27T15:31:32.205Z,2.40
2023-01-27T15:34:04.682Z,5.35
2023-01-27T15:36:33.016Z,3.63
2023-01-27T15:39:02.630Z,3.17
2023-01-27T15:41:29.700Z,4.13
2023-01-27T15:44:03.999Z,2.40
2023-01-27T15:46:37.289Z,4.22
2023-01-27T15:49:09.120Z,5.95
2023-01-27T15:51:37.371Z,4.03
2023-01-27T15:54:04.851Z,3.85
2023-01-27T15:56:48.885Z,5.55
2023-01-27T15:59:20.599Z,2.38
2023-01-27T16:01:50.385Z,3.80
2023-01-27T16:04:27.297Z,3.97
2023-01-27T16:07:02.389Z,4.10
2023-01-27T16:09:45.827Z,2.47
2023-01-27T16:12:24.475Z,2.92
2023-01-27T16:15:31.461Z,2.58
2023-01-27T16:18:07.140Z,3.78
2023-01-27T16:20:37.585Z,4.60
2023-01-27T16:23:33.105Z,4.20
2023-01-27T16:26:30.272Z,5.40
2023-01-27T16:29:11.210Z,3.65
2023-01-27T16:31:39.519Z,6.13
2023-01-27T16:34:20.062Z,3.63
2023-01-27T16:36:46.944Z,9.68
2023-01-27T16:39:32.736Z,4.80
2023-01-27T16:42:00.054Z,4.82
2023-01-27T16:44:43.490Z,3.25
2023-01-27T16:47:43.817Z,5.03
2023-01-27T16:50:34.165Z,3.67
2023-01-27T16:53:02.201Z,4.45
2023-01-27T16:55:29.333Z,3.10
2023-01-27T16:57:57.815Z,4.00
2023-01-27T17:00:31.866Z,5.05
2023-01-27T17:03:02.710Z,3.15
2023-01-27T17:05:29.569Z,5.72
2023-01-27T17:08:17.449Z,5.50
2023-01-27T17:10:54.249Z,3.45
2023-01-27T17:13:33.994Z,4.78
2023-01-27T17:16:03.574Z,3.10
2023-01-27T17:18:43.642Z,3.70
2023-01-27T17:22:17.310Z,4.03
2023-01-27T17:24:50.118Z,3.47
2023-01-27T17:27:18.142Z,4.38
2023-01-27T17:29:47.408Z,5.57
2023-01-27T17:32:20.826Z,3.17
2023-01-27T17:34:50.638Z,4.63
2023-01-27T17:37:19.945Z,3.17
2023-01-27T17:39:47.661Z,3.85
2023-01-27T17:42:17.141Z,4.15
2023-01-27T17:44:45.439Z,3.83
2023-01-27T17:47:18.103Z,4.57
2023-01-27T17:49:47.662Z,3.75
2023-01-27T17:52:23.128Z,4.80
2023-01-27T17:54:51.486Z,5.60
2023-01-27T17:57:22.740Z,3.97
2023-01-27T18:00:30.168Z,3.08
2023-01-27T18:03:20.160Z,4.80
2023-01-27T18:05:50.075Z,7.00
2023-01-27T18:08:18.875Z,3.10
2023-01-27T18:10:46.554Z,4.40
2023-01-27T18:13:19.283Z,5.10
2023-01-27T18:16:08.807Z,4.63
2023-01-27T18:18:36.421Z,5.68
2023-01-27T18:21:05.993Z,4.20
2023-01-27T18:23:38.280Z,3.97
2023-01-27T18:26:06.909Z,4.05
2023-01-27T18:28:36.618Z,3.15
2023-01-27T18:31:04.750Z,4.57
2023-01-27T18:33:33.325Z,3.67
2023-01-27T18:36:00.705Z,2.97
2023-01-27T18:38:32.204Z,6.22
2023-01-27T18:41:10.353Z,3.35
2023-01-27T18:43:37.031Z,4.30
2023-01-27T18:46:10.142Z,3.10
2023-01-27T18:48:39.083Z,3.08
2023-01-27T18:51:14.846Z,3.63
2023-01-27T18:53:42.031Z,2.45
2023-01-27T18:56:09.222Z,3.97
2023-01-27T18:58:36.305Z,4.70
2023-01-27T19:01:04.586Z,4.20
2023-01-27T19:03:34.650Z,4.10
2023-01-27T19:06:01.563Z,3.22
2023-01-27T19:08:28.404Z,4.30
2023-01-27T19:10:55.053Z,5.57
2023-01-27T19:13:21.870Z,4.70
2023-01-27T19:15:52.668Z,4.68
2023-01-27T19:18:27.396Z,4.45
2023-01-27T19:20:54.109Z,4.72
2023-01-27T19:23:21.500Z,8.77
2023-01-27T19:25:51.307Z,8.48
2023-01-27T19:28:24.283Z,7.07
2023-01-27T19:30:50.921Z,3.45
2023-01-27T19:33:21.700Z,3.45
2023-01-27T19:35:58.696Z,4.68
2023-01-27T19:38:27.467Z,5.72
2023-01-27T19:40:54.547Z,3.75
2023-01-27T19:43:21.631Z,3.33
2023-01-27T19:45:49.930Z,3.47
2023-01-27T19:48:19.330Z,3.58
2023-01-27T19:50:46.564Z,4.93
2023-01-27T19:53:14.977Z,2.88
2023-01-27T19:55:42.718Z,3.30
2023-01-27T19:58:21.316Z,3.90
2023-01-27T20:00:48.193Z,3.38
2023-01-27T20:03:15.044Z,3.47
2023-01-27T20:05:41.738Z,3.72
2023-01-27T20:08:19.858Z,4.78
2023-01-27T20:10:46.906Z,3.60
2023-01-27T20:13:16.668Z,4.93
2023-01-27T20:15:43.966Z,4.70
2023-01-27T20:18:21.480Z,3.10
2023-01-27T20:20:49.437Z,4.15
2023-01-27T20:23:16.943Z,4.57
2023-01-27T20:25:43.606Z,6.28
2023-01-27T20:28:10.690Z,3.97
2023-01-27T20:30:37.383Z,4.13
2023-01-27T20:33:04.511Z,5.72
2023-01-27T20:35:31.552Z,6.07
2023-01-27T20:37:58.385Z,4.35
2023-01-27T20:40:30.165Z,4.78
2023-01-27T20:42:56.886Z,5.30
2023-01-27T20:45:23.644Z,4.00
2023-01-27T20:47:52.277Z,4.07
2023-01-27T20:50:20.279Z,4.88
2023-01-27T20:52:50.008Z,4.75
2023-01-27T20:55:19.335Z,4.85
2023-01-27T20:57:46.859Z,4.45
2023-01-27T21:00:21.620Z,4.53
2023-01-27T21:02:48.796Z,5.47
2023-01-27T21:05:16.464Z,3.88
2023-01-27T21:07:43.294Z,4.82
2023-01-27T21:10:10.694Z,4.10
2023-01-27T21:12:37.280Z,4.50
2023-01-27T21:15:09.484Z,3.13
2023-01-27T21:17:36.377Z,3.65
2023-01-27T21:20:03.707Z,5.15
2023-01-27T21:22:30.511Z,4.07
2023-01-27T21:24:57.197Z,4.40
2023-01-27T21:27:23.816Z,7.15
2023-01-27T21:29:50.757Z,5.05
2023-01-27T21:32:17.916Z,4.35
2023-01-27T21:34:44.584Z,9.63
2023-01-27T21:37:11.240Z,7.70
2023-01-27T21:39:37.914Z,5.07
2023-01-27T21:42:04.626Z,3.25
2023-01-27T21:44:49.927Z,5.38
2023-01-27T21:47:18.640Z,5.18
2023-01-27T21:50:02.741Z,6.30
2023-01-27T21:52:49.783Z,5.57
2023-01-27T21:55:20.609Z,4.15
2023-01-27T21:57:48.557Z,3.90
2023-01-27T22:00:18.156Z,3.92
2023-01-27T22:02:45.199Z,3.95
2023-01-27T22:05:12.903Z,4.25
2023-01-27T22:07:41.766Z,3.63
2023-01-27T22:10:15.172Z,2.78
2023-01-27T22:12:42.091Z,6.47
2023-01-27T22:15:10.225Z,3.72
2023-01-27T22:17:36.915Z,4.30
2023-01-27T22:20:04.460Z,3.33
2023-01-27T22:22:31.075Z,4.97
2023-01-27T22:24:57.734Z,5.45
2023-01-27T22:27:24.524Z,3.15
2023-01-27T22:29:51.191Z,3.50
2023-01-27T22:32:17.862Z,4.10
2023-01-27T22:34:44.626Z,6.40
2023-01-27T22:37:11.339Z,6.45
2023-01-27T22:39:38.254Z,7.38
2023-01-27T22:42:05.021Z,13.05
2023-01-27T22:44:31.675Z,11.55
2023-01-27T22:46:58.325Z,9.75
2023-01-27T22:49:24.998Z,11.20
2023-01-27T22:51:51.705Z,10.18
2023-01-27T22:54:18.363Z,12.68
2023-01-27T22:56:44.999Z,13.15
2023-01-27T22:59:13.185Z,12.30
2023-01-27T23:01:40.298Z,15.13
2023-01-27T23:04:06.995Z,9.95
2023-01-27T23:06:33.641Z,11.65
2023-01-27T23:09:00.226Z,12.02
2023-01-27T23:11:26.936Z,14.75
2023-01-27T23:13:54.252Z,11.93
2023-01-27T23:16:21.116Z,9.45
2023-01-27T23:18:47.811Z,8.18
2023-01-27T23:21:14.477Z,9.07
2023-01-27T23:24:39.046Z,7.70
2023-01-27T23:36:39.091Z,8.52
2023-01-27T23:53:06.299Z,6.40
2023-01-27T23:55:32.964Z,6.85
2023-01-27T23:57:59.584Z,5.85
